createdAt,value
2019-03-23T00:01:51.625Z,9.09
2019-03-23T00:05:59.815Z,9.19
2019-03-23T00:10:09.176Z,9.10
2019-03-23T00:14:17.445Z,9.06
2019-03-23T00:18:26.105Z,8.91
2019-03-23T00:22:35.038Z,8.94
2019-03-23T00:26:43.412Z,8.99
2019-03-23T00:30:52.113Z,8.82
2019-03-23T00:35:00.962Z,8.96
2019-03-23T00:39:09.156Z,8.80
2019-03-23T00:43:18.126Z,8.84
2019-03-23T00:47:26.724Z,9.01
2019-03-23T00:51:34.958Z,9.04
2019-03-23T00:55:45.251Z,9.10
2019-03-23T00:59:53.640Z,9.09
2019-03-23T01:04:01.970Z,9.25
2019-03-23T01:08:10.844Z,9.29
2019-03-23T01:12:19.124Z,9.28
2019-03-23T01:16:28.159Z,9.26
2019-03-23T01:20:36.787Z,9.09
2019-03-23T01:24:44.993Z,9.12
2019-03-23T01:28:53.839Z,9.01
2019-03-23T01:33:02.774Z,9.05
2019-03-23T01:37:11.074Z,9.00
2019-03-23T01:41:20.035Z,8.93
2019-03-23T01:45:28.639Z,8.94
2019-03-23T01:49:36.985Z,8.62
2019-03-23T01:53:45.660Z,8.59
2019-03-23T01:57:54.626Z,8.42
2019-03-23T02:02:02.812Z,8.20
2019-03-23T02:06:11.281Z,8.27
2019-03-23T02:10:19.660Z,8.51
2019-03-23T02:14:27.918Z,8.58
2019-03-23T02:18:36.715Z,8.65
2019-03-23T02:22:44.900Z,8.90
2019-03-23T02:26:53.819Z,8.95
2019-03-23T02:31:03.060Z,9.10
2019-03-23T02:35:11.529Z,9.10
2019-03-23T02:39:20.749Z,9.03
2019-03-23T02:43:29.619Z,9.11
2019-03-23T02:47:37.804Z,9.11
2019-03-23T02:51:46.769Z,9.16
2019-03-23T02:55:55.656Z,9.20
2019-03-23T03:00:07.462Z,9.37
2019-03-23T03:04:15.839Z,9.54
2019-03-23T03:08:24.520Z,9.52
2019-03-23T03:12:33.047Z,9.54
2019-03-23T03:16:41.973Z,9.49
2019-03-23T03:20:50.612Z,9.45
2019-03-23T03:24:58.923Z,9.37
2019-03-23T03:29:07.462Z,9.50
2019-03-23T03:33:15.730Z,9.63
2019-03-23T03:37:24.523Z,9.80
2019-03-23T03:41:32.943Z,9.85
2019-03-23T03:45:41.379Z,9.71
2019-03-23T03:49:49.802Z,9.59
2019-03-23T03:53:58.730Z,9.59
2019-03-23T03:58:07.139Z,9.57
2019-03-23T04:02:15.667Z,9.67
2019-03-23T04:06:24.411Z,9.71
2019-03-23T04:10:33.036Z,9.38
2019-03-23T04:14:41.574Z,9.25
2019-03-23T04:18:49.896Z,9.30
2019-03-23T04:22:58.014Z,9.31
2019-03-23T04:27:06.648Z,9.44
2019-03-23T04:31:14.972Z,9.53
2019-03-23T04:35:23.275Z,9.53
2019-03-23T04:39:31.731Z,9.63
2019-03-23T04:43:40.030Z,9.75
2019-03-23T04:47:48.763Z,9.74
2019-03-23T04:51:57.503Z,9.88
2019-03-23T04:56:05.825Z,9.74
2019-03-23T05:00:15.469Z,9.76
2019-03-23T05:04:24.109Z,9.83
2019-03-23T05:08:33.574Z,9.97
2019-03-23T05:12:42.326Z,10.15
2019-03-23T05:16:51.181Z,10.41
2019-03-23T05:20:59.641Z,10.60
2019-03-23T05:25:10.231Z,10.71
2019-03-23T05:29:18.505Z,10.61
2019-03-23T05:33:26.943Z,10.55
2019-03-23T05:37:35.799Z,10.62
2019-03-23T05:41:44.199Z,10.70
2019-03-23T05:45:52.970Z,10.92
2019-03-23T05:50:01.467Z,10.73
2019-03-23T05:54:09.795Z,11.31
2019-03-23T05:58:18.549Z,11.49
2019-03-23T06:02:27.430Z,10.94
2019-03-23T06:06:35.981Z,11.28
2019-03-23T06:10:44.508Z,11.39
2019-03-23T06:14:52.828Z,11.64
2019-03-23T06:19:02.921Z,12.55
2019-03-23T06:23:12.447Z,13.61
2019-03-23T06:27:20.683Z,14.23
2019-03-23T06:31:29.211Z,13.73
2019-03-23T06:35:37.944Z,13.75
2019-03-23T06:39:46.270Z,14.69
2019-03-23T06:43:54.765Z,14.35
2019-03-23T06:48:03.208Z,14.32
2019-03-23T06:52:11.642Z,15.18
2019-03-23T06:56:20.265Z,14.92
2019-03-23T07:00:28.602Z,15.38
2019-03-23T07:04:37.093Z,15.96
2019-03-23T07:08:45.346Z,17.30
2019-03-23T07:12:53.755Z,15.90
2019-03-23T07:17:02.598Z,15.55
2019-03-23T07:21:10.832Z,16.28
2019-03-23T07:25:19.339Z,15.93
2019-03-23T07:29:27.671Z,16.76
2019-03-23T07:33:36.518Z,15.91
2019-03-23T07:37:45.150Z,15.94
2019-03-23T07:41:53.461Z,16.34
2019-03-23T07:46:02.191Z,16.42
2019-03-23T07:50:10.716Z,15.85
2019-03-23T07:54:19.124Z,15.33
2019-03-23T07:58:27.550Z,15.88
2019-03-23T08:02:35.872Z,15.65
2019-03-23T08:06:44.641Z,15.98
2019-03-23T08:10:52.818Z,16.20
2019-03-23T08:15:01.554Z,16.13
2019-03-23T08:19:10.895Z,15.69
2019-03-23T08:23:19.733Z,15.66
2019-03-23T08:27:28.084Z,15.77
2019-03-23T08:31:36.370Z,16.55
2019-03-23T08:35:45.187Z,17.52
2019-03-23T08:39:53.756Z,16.44
2019-03-23T08:44:02.084Z,16.32
2019-03-23T08:48:10.905Z,15.84
2019-03-23T08:52:19.228Z,16.16
2019-03-23T08:56:27.341Z,17.08
2019-03-23T09:00:35.866Z,17.46
2019-03-23T09:04:44.200Z,17.49
2019-03-23T09:08:53.037Z,16.34
2019-03-23T09:13:01.737Z,16.41
2019-03-23T09:17:09.979Z,16.90
2019-03-23T09:21:18.724Z,17.48
2019-03-23T09:25:27.171Z,17.27
2019-03-23T09:29:35.428Z,17.05
2019-03-23T09:33:44.068Z,18.16
2019-03-23T09:37:52.372Z,18.42
2019-03-23T09:42:00.911Z,17.36
2019-03-23T09:46:09.747Z,17.70
2019-03-23T09:50:18.254Z,18.91
2019-03-23T09:54:27.011Z,17.41
2019-03-23T09:58:35.540Z,17.97
2019-03-23T10:02:43.754Z,17.42
2019-03-23T10:06:52.578Z,18.22
2019-03-23T10:11:01.029Z,20.31
2019-03-23T10:15:09.439Z,19.43
2019-03-23T10:19:18.257Z,17.72
2019-03-23T10:23:26.611Z,17.63
2019-03-23T10:27:34.944Z,17.39
2019-03-23T10:31:43.343Z,16.66
2019-03-23T10:35:52.357Z,15.49
2019-03-23T10:40:00.925Z,15.16
2019-03-23T10:44:11.371Z,15.01
2019-03-23T10:48:20.741Z,14.89
2019-03-23T10:52:29.758Z,15.68
2019-03-23T10:56:38.620Z,15.75
2019-03-23T11:00:46.830Z,15.17
2019-03-23T11:04:56.674Z,15.04
2019-03-23T11:09:06.499Z,14.86
2019-03-23T11:13:14.642Z,15.52
2019-03-23T11:17:23.401Z,16.71
2019-03-23T11:21:32.012Z,15.67
2019-03-23T11:25:40.331Z,15.88
2019-03-23T11:29:48.766Z,16.08
2019-03-23T11:33:57.081Z,16.64
2019-03-23T11:38:05.631Z,16.25
2019-03-23T11:42:14.241Z,15.77
2019-03-23T11:46:22.862Z,15.64
2019-03-23T11:50:31.689Z,15.70
2019-03-23T11:54:40.145Z,15.54
2019-03-23T11:58:50.601Z,15.38
2019-03-23T12:02:59.248Z,15.98
2019-03-23T12:07:07.661Z,16.12
2019-03-23T12:11:17.410Z,15.93
2019-03-23T12:15:25.839Z,17.84
2019-03-23T12:19:34.364Z,16.29
2019-03-23T12:23:42.795Z,16.12
2019-03-23T12:27:51.612Z,16.72
2019-03-23T12:31:59.855Z,15.42
2019-03-23T12:36:08.553Z,15.62
2019-03-23T12:40:18.332Z,16.24
2019-03-23T12:44:26.764Z,15.12
2019-03-23T12:48:35.681Z,15.55
2019-03-23T12:52:44.006Z,15.56
2019-03-23T12:56:53.770Z,15.20
2019-03-23T13:01:02.019Z,14.88
2019-03-23T13:05:10.456Z,14.84
2019-03-23T13:09:18.744Z,14.60
2019-03-23T13:13:26.985Z,15.14
2019-03-23T13:17:36.509Z,15.31
2019-03-23T13:21:44.518Z,15.36
2019-03-23T13:25:52.953Z,15.29
2019-03-23T13:30:01.468Z,15.16
2019-03-23T13:34:12.354Z,14.90
2019-03-23T13:38:21.180Z,15.19
2019-03-23T13:42:29.421Z,14.93
2019-03-23T13:46:37.728Z,15.17
2019-03-23T13:50:46.357Z,16.05
2019-03-23T13:54:54.661Z,16.84
2019-03-23T13:59:02.983Z,17.24
2019-03-23T14:03:11.520Z,17.39
2019-03-23T14:07:19.833Z,16.99
2019-03-23T14:11:28.192Z,16.99
2019-03-23T14:15:37.022Z,16.15
2019-03-23T14:19:45.420Z,16.15
2019-03-23T14:23:55.231Z,15.95
2019-03-23T14:28:03.718Z,15.32
2019-03-23T14:32:11.835Z,15.49
2019-03-23T14:36:20.161Z,14.97
2019-03-23T14:40:28.355Z,14.94
2019-03-23T14:44:36.822Z,15.18
2019-03-23T14:48:45.223Z,15.24
2019-03-23T14:52:53.685Z,14.63
2019-03-23T14:57:02.068Z,15.12
2019-03-23T15:01:10.805Z,14.77
2019-03-23T15:05:19.122Z,13.10
2019-03-23T15:09:27.735Z,12.54
2019-03-23T15:13:36.078Z,11.46
2019-03-23T15:17:48.814Z,11.34
2019-03-23T15:21:55.657Z,11.34
2019-03-23T15:26:04.211Z,11.15
2019-03-23T15:30:13.849Z,10.98
2019-03-23T15:34:22.397Z,10.76
2019-03-23T15:38:30.665Z,10.70
2019-03-23T15:42:39.426Z,10.50
2019-03-23T15:46:48.265Z,10.48
2019-03-23T15:50:56.607Z,10.69
2019-03-23T15:55:05.869Z,10.79
2019-03-23T15:59:14.355Z,10.75
2019-03-23T16:03:22.831Z,10.64
2019-03-23T16:07:31.422Z,10.79
2019-03-23T16:11:40.475Z,10.47
2019-03-23T16:15:48.688Z,10.56
2019-03-23T16:19:57.038Z,10.28
2019-03-23T16:24:05.227Z,10.06
2019-03-23T16:28:13.849Z,10.00
2019-03-23T16:32:22.607Z,10.43
2019-03-23T16:36:30.827Z,10.69
2019-03-23T16:40:39.346Z,10.66
2019-03-23T16:44:49.087Z,10.53
2019-03-23T16:48:58.008Z,10.55
2019-03-23T16:53:06.568Z,10.56
2019-03-23T16:57:14.973Z,10.63
2019-03-23T17:01:23.300Z,10.58
2019-03-23T17:05:32.032Z,10.76
2019-03-23T17:09:40.560Z,10.93
2019-03-23T17:13:49.296Z,10.45
2019-03-23T17:17:58.118Z,10.24
2019-03-23T17:22:06.637Z,10.08
2019-03-23T17:26:15.576Z,9.81
2019-03-23T17:30:23.933Z,9.61
2019-03-23T17:34:32.531Z,9.49
2019-03-23T17:38:41.267Z,9.17
2019-03-23T17:42:49.984Z,9.00
2019-03-23T17:46:58.857Z,8.91
2019-03-23T17:51:07.764Z,8.87
2019-03-23T17:55:16.184Z,8.51
2019-03-23T17:59:24.937Z,8.60
2019-03-23T18:03:33.595Z,8.26
2019-03-23T18:07:42.078Z,8.18
2019-03-23T18:11:50.511Z,8.18
2019-03-23T18:15:59.334Z,7.90
2019-03-23T18:20:08.789Z,8.09
2019-03-23T18:24:17.224Z,7.81
2019-03-23T18:28:26.054Z,7.60
2019-03-23T18:32:34.579Z,7.49
2019-03-23T18:36:43.099Z,7.34
2019-03-23T18:40:51.545Z,7.29
2019-03-23T18:45:00.071Z,7.15
2019-03-23T18:49:08.493Z,6.97
2019-03-23T18:53:16.795Z,6.96
2019-03-23T18:57:25.119Z,7.01
2019-03-23T19:01:33.443Z,6.81
2019-03-23T19:05:41.770Z,6.64
2019-03-23T19:09:51.309Z,6.68
2019-03-23T19:14:00.052Z,6.64
2019-03-23T19:18:09.505Z,6.61
2019-03-23T19:22:18.262Z,6.59
2019-03-23T19:26:26.460Z,6.44
2019-03-23T19:30:35.391Z,6.43
2019-03-23T19:34:44.203Z,6.54
2019-03-23T19:38:53.560Z,6.40
2019-03-23T19:43:02.401Z,6.34
2019-03-23T19:47:11.232Z,6.35
2019-03-23T19:51:19.535Z,6.32
2019-03-23T19:55:28.495Z,5.46
2019-03-23T19:59:37.239Z,5.72
2019-03-23T20:03:47.079Z,5.99
2019-03-23T20:07:55.311Z,5.92
2019-03-23T20:12:03.554Z,5.88
2019-03-23T20:16:12.052Z,5.80
2019-03-23T20:20:21.257Z,5.24
2019-03-23T20:24:29.617Z,5.58
2019-03-23T20:28:38.008Z,5.63
2019-03-23T20:32:46.369Z,5.66
2019-03-23T20:36:54.804Z,5.46
2019-03-23T20:41:03.309Z,5.45
2019-03-23T20:45:12.265Z,5.69
2019-03-23T20:49:21.063Z,5.50
2019-03-23T20:53:29.396Z,5.66
2019-03-23T20:57:38.133Z,5.60
2019-03-23T21:01:46.408Z,5.59
2019-03-23T21:05:55.089Z,5.65
2019-03-23T21:10:03.599Z,5.48
2019-03-23T21:14:19.812Z,5.30
2019-03-23T21:18:22.310Z,5.07
2019-03-23T21:22:30.911Z,5.53
2019-03-23T21:26:39.147Z,5.30
2019-03-23T21:30:47.986Z,5.26
2019-03-23T21:34:56.307Z,4.92
2019-03-23T21:39:06.124Z,5.36
2019-03-23T21:43:14.817Z,5.36
2019-03-23T21:47:24.647Z,5.13
2019-03-23T21:51:32.876Z,5.03
2019-03-23T21:55:41.687Z,5.02
2019-03-23T21:59:50.856Z,4.43
2019-03-23T22:03:59.208Z,4.81
2019-03-23T22:08:08.213Z,4.53
2019-03-23T22:12:16.540Z,4.86
2019-03-23T22:16:25.067Z,4.91
2019-03-23T22:20:33.577Z,4.93
2019-03-23T22:24:41.713Z,5.02
2019-03-23T22:28:50.018Z,4.88
2019-03-23T22:32:58.446Z,4.86
2019-03-23T22:37:06.774Z,4.63
2019-03-23T22:41:15.183Z,4.80
2019-03-23T22:45:23.407Z,5.07
2019-03-23T22:49:32.339Z,4.29
2019-03-23T22:53:40.791Z,4.59
2019-03-23T22:57:49.097Z,4.00
2019-03-23T23:01:58.618Z,3.84
2019-03-23T23:06:07.469Z,4.10
2019-03-23T23:10:16.310Z,4.25
2019-03-23T23:14:25.148Z,4.23
2019-03-23T23:18:33.572Z,4.04
2019-03-23T23:22:41.909Z,4.14
2019-03-23T23:26:50.707Z,4.22
2019-03-23T23:30:59.447Z,4.08
2019-03-23T23:35:08.987Z,4.31
2019-03-23T23:39:17.737Z,4.05
2019-03-23T23:43:26.059Z,4.13
2019-03-23T23:47:34.587Z,4.05
2019-03-23T23:51:50.007Z,3.96
2019-03-23T23:55:53.297Z,4.17
